Date,TemperatureHighF,TemperatureAvgF,TemperatureLowF,DewpointHighF,DewpointAvgF,DewpointLowF,HumidityHigh,HumidityAvg,HumidityLow,PressureMaxIn,PressureMinIn,WindSpeedMaxMPH,WindSpeedAvgMPH,GustSpeedMaxMPH,PrecipitationSumIn
2013-1-1,20,8,-12,17,5,-16,91,86,76,30.42,30.14,14,6,18,0.00
2013-1-2,22,19,16,19,17,14,94,91,84,30.19,30.04,12,5,16,0.00
2013-1-3,18,12,8,15,8,3,91,85,74,30.39,30.18,12,7,18,0.00
2013-1-4,28,19,13,19,14,10,92,82,67,30.22,30.12,15,4,18,0.00
2013-1-5,24,15,8,15,12,6,94,87,69,30.18,29.97,12,3,15,0.00
2013-1-6,20,14,10,14,10,6,93,84,71,30.34,30.10,10,4,15,0.00
2013-1-7,35,27,19,27,22,16,89,82,70,30.06,29.96,19,7,24,0.00
2013-1-8,34,26,17,29,24,15,95,88,77,30.06,29.81,14,5,19,0.00
2013-1-9,34,29,23,28,23,19,89,78,68,30.43,29.97,25,9,33,0.00
2013-1-10,40,34,26,33,27,22,97,75,51,30.36,29.78,16,7,20,0.21
2013-1-11,39,36,34,39,36,33,99,98,97,29.78,29.40,13,4,19,0.05
2013-1-12,35,10,2,34,4,-3,98,78,70,30.18,29.40,22,11,33,0.00
2013-1-13,7,3,-1,2,-2,-5,87,82,76,30.37,30.18,8,4,11,0.00
2013-1-14,11,6,0,5,1,-3,89,82,69,30.56,30.37,9,4,12,0.00
2013-1-15,27,17,7,18,11,4,90,79,64,30.39,29.89,15,8,24,0.00
2013-1-16,34,25,9,32,16,-3,94,71,41,30.35,29.74,18,8,29,0.00
2013-1-17,19,10,3,10,2,-6,81,70,58,30.52,30.36,11,4,14,0.00
2013-1-18,37,26,15,30,22,10,93,84,73,30.39,29.82,17,5,18,0.00
2013-1-19,37,17,0,31,11,-6,96,76,59,30.33,29.77,24,12,38,0.00
2013-1-20,6,1,-4,-1,-7,-11,78,71,66,30.54,30.35,15,8,21,0.00
2013-1-21,-4,-8,-13,-11,-15,-20,78,72,65,30.53,30.43,18,7,23,0.00
2013-1-22,3,-4,-14,-2,-10,-18,81,74,67,30.60,30.40,10,4,12,0.00
2013-1-23,13,4,-7,6,-5,-16,86,67,53,30.77,30.31,20,8,28,0.00
2013-1-24,12,2,-9,4,-7,-18,71,67,63,30.84,30.29,13,5,14,0.00
2013-1-25,17,11,1,11,4,-4,80,73,65,30.44,30.07,21,9,23,0.00
2013-1-26,23,14,-4,14,6,-7,88,71,60,30.49,30.21,12,4,17,0.00
2013-1-27,32,28,21,29,24,13,97,85,67,30.22,29.88,9,4,14,0.00
2013-1-28,35,31,28,34,30,27,98,97,94,29.97,29.72,14,3,16,0.12
2013-1-29,34,31,26,32,28,21,98,91,82,29.84,29.60,13,5,22,0.07
2013-1-30,26,15,6,21,10,0,87,80,73,29.88,29.77,19,10,26,0.00
2013-1-31,6,-1,-9,2,-7,-16,83,75,68,30.43,29.89,20,10,25,0.00